sensor_id;sensor_type;location;lat;lon;timestamp;P1;durP1;ratioP1;P2;durP2;ratioP2
36725;SDS011;44936;52.086;5.150;2023-08-20T00:01:26;2.08;;;1.27;;
36725;SDS011;44936;52.086;5.150;2023-08-20T00:03:53;4.25;;;1.08;;
36725;SDS011;44936;52.086;5.150;2023-08-20T00:06:19;7.95;;;1.30;;
36725;SDS011;44936;52.086;5.150;2023-08-20T00:08:45;3.90;;;1.80;;
36725;SDS011;44936;52.086;5.150;2023-08-20T00:11:11;4.28;;;1.30;;
36725;SDS011;44936;52.086;5.150;2023-08-20T00:13:37;1.20;;;0.80;;
36725;SDS011;44936;52.086;5.150;2023-08-20T00:16:03;3.45;;;1.00;;
36725;SDS011;44936;52.086;5.150;2023-08-20T00:18:29;1.63;;;1.10;;
36725;SDS011;44936;52.086;5.150;2023-08-20T00:20:54;2.17;;;1.00;;
36725;SDS011;44936;52.086;5.150;2023-08-20T00:23:20;4.70;;;0.88;;
36725;SDS011;44936;52.086;5.150;2023-08-20T00:25:46;4.25;;;1.33;;
36725;SDS011;44936;52.086;5.150;2023-08-20T00:28:13;1.20;;;1.05;;
36725;SDS011;44936;52.086;5.150;2023-08-20T00:30:39;3.45;;;0.95;;
36725;SDS011;44936;52.086;5.150;2023-08-20T00:33:04;2.65;;;1.10;;
36725;SDS011;44936;52.086;5.150;2023-08-20T00:35:30;2.35;;;0.82;;
36725;SDS011;44936;52.086;5.150;2023-08-20T00:37:55;1.08;;;0.75;;
36725;SDS011;44936;52.086;5.150;2023-08-20T00:40:21;1.35;;;0.80;;
36725;SDS011;44936;52.086;5.150;2023-08-20T00:42:46;3.83;;;0.68;;
36725;SDS011;44936;52.086;5.150;2023-08-20T00:45:11;2.80;;;1.25;;
36725;SDS011;44936;52.086;5.150;2023-08-20T00:47:37;3.70;;;0.60;;
36725;SDS011;44936;52.086;5.150;2023-08-20T00:50:03;3.15;;;0.70;;
36725;SDS011;44936;52.086;5.150;2023-08-20T00:52:34;1.38;;;0.68;;
36725;SDS011;44936;52.086;5.150;2023-08-20T00:55:01;1.38;;;0.90;;
36725;SDS011;44936;52.086;5.150;2023-08-20T00:57:35;1.45;;;0.95;;
36725;SDS011;44936;52.086;5.150;2023-08-20T01:00:02;3.80;;;0.82;;
36725;SDS011;44936;52.086;5.150;2023-08-20T01:02:32;2.40;;;0.80;;
36725;SDS011;44936;52.086;5.150;2023-08-20T01:04:58;3.13;;;0.98;;
36725;SDS011;44936;52.086;5.150;2023-08-20T01:07:29;2.85;;;1.10;;
36725;SDS011;44936;52.086;5.150;2023-08-20T01:13:10;5.10;;;1.08;;
36725;SDS011;44936;52.086;5.150;2023-08-20T01:15:35;1.60;;;0.90;;
36725;SDS011;44936;52.086;5.150;2023-08-20T01:18:01;3.28;;;0.82;;
36725;SDS011;44936;52.086;5.150;2023-08-20T01:20:27;1.70;;;0.90;;
36725;SDS011;44936;52.086;5.150;2023-08-20T01:28:58;2.55;;;0.73;;
36725;SDS011;44936;52.086;5.150;2023-08-20T01:31:23;2.25;;;0.75;;
36725;SDS011;44936;52.086;5.150;2023-08-20T01:33:51;4.32;;;0.90;;
36725;SDS011;44936;52.086;5.150;2023-08-20T01:36:17;1.80;;;0.90;;
36725;SDS011;44936;52.086;5.150;2023-08-20T01:38:42;5.85;;;1.02;;
36725;SDS011;44936;52.086;5.150;2023-08-20T01:41:08;1.33;;;0.82;;
36725;SDS011;44936;52.086;5.150;2023-08-20T01:43:33;4.43;;;1.02;;
36725;SDS011;44936;52.086;5.150;2023-08-20T01:45:59;3.00;;;1.00;;
36725;SDS011;44936;52.086;5.150;2023-08-20T01:48:24;2.47;;;0.88;;
36725;SDS011;44936;52.086;5.150;2023-08-20T01:50:50;2.95;;;0.93;;
36725;SDS011;44936;52.086;5.150;2023-08-20T01:53:15;3.30;;;0.95;;
36725;SDS011;44936;52.086;5.150;2023-08-20T01:55:40;1.98;;;0.90;;
36725;SDS011;44936;52.086;5.150;2023-08-20T01:58:06;3.92;;;1.20;;
36725;SDS011;44936;52.086;5.150;2023-08-20T02:00:31;4.18;;;1.17;;
36725;SDS011;44936;52.086;5.150;2023-08-20T02:02:58;2.88;;;1.08;;
36725;SDS011;44936;52.086;5.150;2023-08-20T02:05:24;1.30;;;0.80;;
36725;SDS011;44936;52.086;5.150;2023-08-20T02:07:50;3.25;;;0.90;;
36725;SDS011;44936;52.086;5.150;2023-08-20T02:10:15;3.10;;;0.80;;
36725;SDS011;44936;52.086;5.150;2023-08-20T02:12:40;2.60;;;1.02;;
36725;SDS011;44936;52.086;5.150;2023-08-20T02:15:06;3.80;;;0.98;;
36725;SDS011;44936;52.086;5.150;2023-08-20T02:17:33;3.65;;;0.90;;
36725;SDS011;44936;52.086;5.150;2023-08-20T02:20:00;1.80;;;1.20;;
36725;SDS011;44936;52.086;5.150;2023-08-20T02:22:26;1.30;;;0.73;;
36725;SDS011;44936;52.086;5.150;2023-08-20T02:24:54;1.50;;;0.85;;
36725;SDS011;44936;52.086;5.150;2023-08-20T02:27:20;5.30;;;1.00;;
36725;SDS011;44936;52.086;5.150;2023-08-20T02:29:46;4.95;;;1.13;;
36725;SDS011;44936;52.086;5.150;2023-08-20T02:32:11;1.90;;;1.05;;
36725;SDS011;44936;52.086;5.150;2023-08-20T02:34:37;8.63;;;1.02;;
36725;SDS011;44936;52.086;5.150;2023-08-20T02:37:02;2.38;;;0.70;;
36725;SDS011;44936;52.086;5.150;2023-08-20T02:39:27;2.10;;;0.73;;
36725;SDS011;44936;52.086;5.150;2023-08-20T02:41:53;1.08;;;0.90;;
36725;SDS011;44936;52.086;5.150;2023-08-20T02:44:18;3.70;;;0.90;;
36725;SDS011;44936;52.086;5.150;2023-08-20T02:46:43;2.58;;;1.10;;
36725;SDS011;44936;52.086;5.150;2023-08-20T02:49:09;3.45;;;1.27;;
36725;SDS011;44936;52.086;5.150;2023-08-20T02:51:35;2.50;;;1.17;;
36725;SDS011;44936;52.086;5.150;2023-08-20T02:54:00;2.28;;;1.15;;
36725;SDS011;44936;52.086;5.150;2023-08-20T02:56:26;3.90;;;0.90;;
36725;SDS011;44936;52.086;5.150;2023-08-20T02:58:51;3.85;;;1.13;;
36725;SDS011;44936;52.086;5.150;2023-08-20T03:01:20;2.95;;;1.20;;
36725;SDS011;44936;52.086;5.150;2023-08-20T03:03:47;1.70;;;0.90;;
36725;SDS011;44936;52.086;5.150;2023-08-20T03:06:12;2.88;;;1.30;;
36725;SDS011;44936;52.086;5.150;2023-08-20T03:08:38;3.50;;;1.13;;
36725;SDS011;44936;52.086;5.150;2023-08-20T03:11:03;4.63;;;1.05;;
36725;SDS011;44936;52.086;5.150;2023-08-20T03:13:29;3.15;;;1.30;;
36725;SDS011;44936;52.086;5.150;2023-08-20T03:15:54;6.78;;;1.13;;
36725;SDS011;44936;52.086;5.150;2023-08-20T03:18:19;2.30;;;0.93;;
36725;SDS011;44936;52.086;5.150;2023-08-20T03:20:45;1.92;;;1.17;;
36725;SDS011;44936;52.086;5.150;2023-08-20T03:23:10;2.50;;;1.10;;
36725;SDS011;44936;52.086;5.150;2023-08-20T03:25:36;3.72;;;1.38;;
36725;SDS011;44936;52.086;5.150;2023-08-20T03:28:01;2.70;;;1.15;;
36725;SDS011;44936;52.086;5.150;2023-08-20T03:30:27;2.08;;;1.02;;
36725;SDS011;44936;52.086;5.150;2023-08-20T03:32:52;4.80;;;1.08;;
36725;SDS011;44936;52.086;5.150;2023-08-20T03:35:18;7.25;;;1.20;;
36725;SDS011;44936;52.086;5.150;2023-08-20T03:37:43;6.20;;;1.23;;
36725;SDS011;44936;52.086;5.150;2023-08-20T03:40:09;1.95;;;1.02;;
36725;SDS011;44936;52.086;5.150;2023-08-20T03:42:34;1.35;;;0.82;;
36725;SDS011;44936;52.086;5.150;2023-08-20T03:45:00;2.33;;;0.90;;
36725;SDS011;44936;52.086;5.150;2023-08-20T03:47:25;3.67;;;1.17;;
36725;SDS011;44936;52.086;5.150;2023-08-20T03:49:51;3.17;;;0.93;;
36725;SDS011;44936;52.086;5.150;2023-08-20T03:52:17;3.53;;;1.10;;
36725;SDS011;44936;52.086;5.150;2023-08-20T03:54:42;3.28;;;1.25;;
36725;SDS011;44936;52.086;5.150;2023-08-20T03:57:07;4.88;;;0.80;;
36725;SDS011;44936;52.086;5.150;2023-08-20T03:59:33;3.75;;;0.95;;
36725;SDS011;44936;52.086;5.150;2023-08-20T04:01:58;2.95;;;0.95;;
36725;SDS011;44936;52.086;5.150;2023-08-20T04:04:24;1.42;;;1.02;;
36725;SDS011;44936;52.086;5.150;2023-08-20T04:06:50;1.98;;;1.20;;
36725;SDS011;44936;52.086;5.150;2023-08-20T04:09:16;1.27;;;0.80;;
36725;SDS011;44936;52.086;5.150;2023-08-20T04:11:42;3.95;;;0.90;;
36725;SDS011;44936;52.086;5.150;2023-08-20T04:14:07;5.63;;;1.10;;
36725;SDS011;44936;52.086;5.150;2023-08-20T04:16:32;1.80;;;0.80;;
36725;SDS011;44936;52.086;5.150;2023-08-20T04:18:58;1.67;;;1.05;;
36725;SDS011;44936;52.086;5.150;2023-08-20T04:21:23;1.95;;;0.95;;
36725;SDS011;44936;52.086;5.150;2023-08-20T04:23:48;5.13;;;2.03;;
36725;SDS011;44936;52.086;5.150;2023-08-20T04:26:14;2.33;;;1.05;;
36725;SDS011;44936;52.086;5.150;2023-08-20T04:28:39;2.42;;;0.75;;
36725;SDS011;44936;52.086;5.150;2023-08-20T04:31:05;4.18;;;1.30;;
36725;SDS011;44936;52.086;5.150;2023-08-20T04:33:30;1.08;;;0.77;;
36725;SDS011;44936;52.086;5.150;2023-08-20T04:35:55;1.42;;;0.80;;
36725;SDS011;44936;52.086;5.150;2023-08-20T04:38:21;3.60;;;0.70;;
36725;SDS011;44936;52.086;5.150;2023-08-20T04:40:47;2.00;;;0.93;;
36725;SDS011;44936;52.086;5.150;2023-08-20T04:43:13;2.90;;;0.90;;
36725;SDS011;44936;52.086;5.150;2023-08-20T04:45:39;1.98;;;0.90;;
36725;SDS011;44936;52.086;5.150;2023-08-20T04:48:05;2.00;;;0.73;;
36725;SDS011;44936;52.086;5.150;2023-08-20T04:50:30;2.92;;;0.73;;
36725;SDS011;44936;52.086;5.150;2023-08-20T04:52:56;2.25;;;0.80;;
36725;SDS011;44936;52.086;5.150;2023-08-20T04:55:24;4.53;;;0.82;;
36725;SDS011;44936;52.086;5.150;2023-08-20T04:57:50;4.13;;;0.90;;
36725;SDS011;44936;52.086;5.150;2023-08-20T05:00:15;4.80;;;0.98;;
36725;SDS011;44936;52.086;5.150;2023-08-20T05:02:41;1.92;;;1.23;;
36725;SDS011;44936;52.086;5.150;2023-08-20T05:05:06;0.98;;;0.70;;
36725;SDS011;44936;52.086;5.150;2023-08-20T05:07:32;1.55;;;1.00;;
36725;SDS011;44936;52.086;5.150;2023-08-20T05:09:57;3.05;;;0.85;;
36725;SDS011;44936;52.086;5.150;2023-08-20T05:12:22;2.20;;;1.08;;
36725;SDS011;44936;52.086;5.150;2023-08-20T05:14:48;2.92;;;1.20;;
36725;SDS011;44936;52.086;5.150;2023-08-20T05:17:13;4.75;;;0.85;;
36725;SDS011;44936;52.086;5.150;2023-08-20T05:19:39;2.20;;;0.77;;
36725;SDS011;44936;52.086;5.150;2023-08-20T05:22:04;0.90;;;0.70;;
36725;SDS011;44936;52.086;5.150;2023-08-20T05:24:29;2.50;;;0.75;;
36725;SDS011;44936;52.086;5.150;2023-08-20T05:27:08;1.67;;;0.82;;
36725;SDS011;44936;52.086;5.150;2023-08-20T05:29:33;6.03;;;1.15;;
36725;SDS011;44936;52.086;5.150;2023-08-20T05:31:59;0.80;;;0.50;;
36725;SDS011;44936;52.086;5.150;2023-08-20T05:34:24;2.75;;;0.80;;
36725;SDS011;44936;52.086;5.150;2023-08-20T05:36:50;3.08;;;0.80;;
36725;SDS011;44936;52.086;5.150;2023-08-20T05:39:15;0.63;;;0.63;;
36725;SDS011;44936;52.086;5.150;2023-08-20T05:41:41;1.63;;;1.40;;
36725;SDS011;44936;52.086;5.150;2023-08-20T05:44:06;1.95;;;0.88;;
36725;SDS011;44936;52.086;5.150;2023-08-20T05:46:31;0.95;;;0.70;;
36725;SDS011;44936;52.086;5.150;2023-08-20T05:48:57;3.15;;;0.80;;
36725;SDS011;44936;52.086;5.150;2023-08-20T05:51:22;3.05;;;0.77;;
36725;SDS011;44936;52.086;5.150;2023-08-20T05:53:47;3.60;;;0.70;;
36725;SDS011;44936;52.086;5.150;2023-08-20T05:56:13;1.52;;;0.60;;
36725;SDS011;44936;52.086;5.150;2023-08-20T05:58:38;5.60;;;0.85;;
36725;SDS011;44936;52.086;5.150;2023-08-20T06:01:03;2.10;;;0.73;;
36725;SDS011;44936;52.086;5.150;2023-08-20T06:03:29;2.08;;;1.25;;
36725;SDS011;44936;52.086;5.150;2023-08-20T06:05:56;3.10;;;0.80;;
36725;SDS011;44936;52.086;5.150;2023-08-20T06:08:22;2.40;;;0.95;;
36725;SDS011;44936;52.086;5.150;2023-08-20T06:10:47;4.72;;;1.10;;
36725;SDS011;44936;52.086;5.150;2023-08-20T06:13:13;2.90;;;1.08;;
36725;SDS011;44936;52.086;5.150;2023-08-20T06:15:38;2.28;;;0.52;;
36725;SDS011;44936;52.086;5.150;2023-08-20T06:18:03;2.78;;;0.73;;
36725;SDS011;44936;52.086;5.150;2023-08-20T06:20:29;2.25;;;0.68;;
36725;SDS011;44936;52.086;5.150;2023-08-20T06:22:54;0.98;;;0.70;;
36725;SDS011;44936;52.086;5.150;2023-08-20T06:25:20;1.40;;;0.65;;
36725;SDS011;44936;52.086;5.150;2023-08-20T06:27:45;3.22;;;0.70;;
36725;SDS011;44936;52.086;5.150;2023-08-20T06:30:11;3.17;;;0.82;;
36725;SDS011;44936;52.086;5.150;2023-08-20T06:32:36;2.63;;;1.08;;
36725;SDS011;44936;52.086;5.150;2023-08-20T06:35:01;3.53;;;0.68;;
36725;SDS011;44936;52.086;5.150;2023-08-20T06:37:27;3.67;;;1.00;;
36725;SDS011;44936;52.086;5.150;2023-08-20T06:39:52;1.67;;;0.82;;
36725;SDS011;44936;52.086;5.150;2023-08-20T06:42:18;4.22;;;0.70;;
36725;SDS011;44936;52.086;5.150;2023-08-20T06:44:43;3.70;;;0.93;;
36725;SDS011;44936;52.086;5.150;2023-08-20T06:47:09;1.90;;;0.93;;
36725;SDS011;44936;52.086;5.150;2023-08-20T06:49:34;3.47;;;1.08;;
36725;SDS011;44936;52.086;5.150;2023-08-20T06:51:59;3.50;;;0.95;;
36725;SDS011;44936;52.086;5.150;2023-08-20T06:54:25;4.47;;;1.08;;
36725;SDS011;44936;52.086;5.150;2023-08-20T06:56:50;9.75;;;1.10;;
36725;SDS011;44936;52.086;5.150;2023-08-20T06:59:15;2.55;;;1.20;;
36725;SDS011;44936;52.086;5.150;2023-08-20T07:01:42;4.25;;;1.08;;
36725;SDS011;44936;52.086;5.150;2023-08-20T07:04:08;1.92;;;0.93;;
36725;SDS011;44936;52.086;5.150;2023-08-20T07:06:33;3.67;;;0.88;;
36725;SDS011;44936;52.086;5.150;2023-08-20T07:08:58;4.38;;;0.90;;
36725;SDS011;44936;52.086;5.150;2023-08-20T07:11:24;4.22;;;0.80;;
36725;SDS011;44936;52.086;5.150;2023-08-20T07:13:49;2.67;;;0.68;;
36725;SDS011;44936;52.086;5.150;2023-08-20T07:16:15;1.25;;;0.52;;
36725;SDS011;44936;52.086;5.150;2023-08-20T07:18:40;1.70;;;0.82;;
36725;SDS011;44936;52.086;5.150;2023-08-20T07:21:06;3.10;;;0.90;;
36725;SDS011;44936;52.086;5.150;2023-08-20T07:23:32;3.85;;;1.20;;
36725;SDS011;44936;52.086;5.150;2023-08-20T07:26:08;1.48;;;0.50;;
36725;SDS011;44936;52.086;5.150;2023-08-20T07:28:36;2.72;;;0.93;;
36725;SDS011;44936;52.086;5.150;2023-08-20T07:31:21;1.90;;;1.20;;
36725;SDS011;44936;52.086;5.150;2023-08-20T07:33:46;5.05;;;0.70;;
36725;SDS011;44936;52.086;5.150;2023-08-20T07:36:15;5.65;;;0.80;;
36725;SDS011;44936;52.086;5.150;2023-08-20T07:38:41;2.53;;;0.60;;
36725;SDS011;44936;52.086;5.150;2023-08-20T07:41:08;3.83;;;1.05;;
36725;SDS011;44936;52.086;5.150;2023-08-20T07:43:36;7.78;;;0.85;;
36725;SDS011;44936;52.086;5.150;2023-08-20T07:46:03;4.35;;;1.30;;
36725;SDS011;44936;52.086;5.150;2023-08-20T07:48:28;3.30;;;0.70;;
36725;SDS011;44936;52.086;5.150;2023-08-20T07:50:54;3.25;;;1.00;;
36725;SDS011;44936;52.086;5.150;2023-08-20T07:53:19;2.80;;;0.80;;
36725;SDS011;44936;52.086;5.150;2023-08-20T07:55:44;6.70;;;0.98;;
36725;SDS011;44936;52.086;5.150;2023-08-20T07:58:10;5.28;;;0.80;;
36725;SDS011;44936;52.086;5.150;2023-08-20T08:00:35;3.35;;;0.80;;
36725;SDS011;44936;52.086;5.150;2023-08-20T08:03:00;1.83;;;0.80;;
36725;SDS011;44936;52.086;5.150;2023-08-20T08:05:26;2.88;;;1.05;;
36725;SDS011;44936;52.086;5.150;2023-08-20T08:07:51;4.13;;;0.82;;
36725;SDS011;44936;52.086;5.150;2023-08-20T08:10:16;2.75;;;0.88;;
36725;SDS011;44936;52.086;5.150;2023-08-20T08:12:42;1.52;;;0.70;;
36725;SDS011;44936;52.086;5.150;2023-08-20T08:15:07;1.88;;;0.93;;
36725;SDS011;44936;52.086;5.150;2023-08-20T08:17:32;4.10;;;0.88;;
36725;SDS011;44936;52.086;5.150;2023-08-20T08:19:58;3.92;;;0.68;;
36725;SDS011;44936;52.086;5.150;2023-08-20T08:22:23;2.78;;;0.73;;
36725;SDS011;44936;52.086;5.150;2023-08-20T08:24:49;6.03;;;0.68;;
36725;SDS011;44936;52.086;5.150;2023-08-20T08:27:14;4.68;;;0.70;;
36725;SDS011;44936;52.086;5.150;2023-08-20T08:29:39;1.75;;;0.60;;
36725;SDS011;44936;52.086;5.150;2023-08-20T08:32:05;2.78;;;0.68;;
36725;SDS011;44936;52.086;5.150;2023-08-20T08:34:30;3.08;;;1.38;;
36725;SDS011;44936;52.086;5.150;2023-08-20T08:36:55;4.45;;;1.00;;
36725;SDS011;44936;52.086;5.150;2023-08-20T08:39:21;2.45;;;0.70;;
36725;SDS011;44936;52.086;5.150;2023-08-20T08:41:47;5.00;;;0.77;;
36725;SDS011;44936;52.086;5.150;2023-08-20T08:44:15;1.80;;;0.80;;
36725;SDS011;44936;52.086;5.150;2023-08-20T08:46:42;1.23;;;0.60;;
36725;SDS011;44936;52.086;5.150;2023-08-20T08:49:08;3.60;;;0.70;;
36725;SDS011;44936;52.086;5.150;2023-08-20T08:51:34;3.95;;;1.00;;
36725;SDS011;44936;52.086;5.150;2023-08-20T08:54:02;2.25;;;0.73;;
36725;SDS011;44936;52.086;5.150;2023-08-20T08:56:28;5.43;;;0.68;;
36725;SDS011;44936;52.086;5.150;2023-08-20T08:58:53;4.82;;;0.60;;
36725;SDS011;44936;52.086;5.150;2023-08-20T09:01:19;3.85;;;0.80;;
36725;SDS011;44936;52.086;5.150;2023-08-20T09:03:45;3.45;;;0.77;;
36725;SDS011;44936;52.086;5.150;2023-08-20T09:06:11;3.30;;;0.75;;
36725;SDS011;44936;52.086;5.150;2023-08-20T09:08:39;3.95;;;0.80;;
36725;SDS011;44936;52.086;5.150;2023-08-20T09:11:04;0.95;;;0.45;;
36725;SDS011;44936;52.086;5.150;2023-08-20T09:16:02;1.10;;;0.40;;
36725;SDS011;44936;52.086;5.150;2023-08-20T09:18:29;2.85;;;1.05;;
36725;SDS011;44936;52.086;5.150;2023-08-20T09:20:54;2.53;;;0.50;;
36725;SDS011;44936;52.086;5.150;2023-08-20T09:23:22;0.90;;;0.80;;
36725;SDS011;44936;52.086;5.150;2023-08-20T09:25:47;3.28;;;0.80;;
36725;SDS011;44936;52.086;5.150;2023-08-20T09:28:13;2.85;;;0.35;;
36725;SDS011;44936;52.086;5.150;2023-08-20T09:30:39;2.80;;;0.38;;
36725;SDS011;44936;52.086;5.150;2023-08-20T09:33:12;2.65;;;0.65;;
36725;SDS011;44936;52.086;5.150;2023-08-20T09:35:48;1.90;;;0.98;;
36725;SDS011;44936;52.086;5.150;2023-08-20T09:38:14;2.47;;;0.50;;
36725;SDS011;44936;52.086;5.150;2023-08-20T09:40:39;2.05;;;0.30;;
36725;SDS011;44936;52.086;5.150;2023-08-20T09:43:05;2.10;;;0.47;;
36725;SDS011;44936;52.086;5.150;2023-08-20T09:45:33;0.73;;;0.35;;
36725;SDS011;44936;52.086;5.150;2023-08-20T09:48:01;1.15;;;0.30;;
36725;SDS011;44936;52.086;5.150;2023-08-20T09:50:31;1.55;;;0.30;;
36725;SDS011;44936;52.086;5.150;2023-08-20T09:53:06;1.65;;;0.60;;
36725;SDS011;44936;52.086;5.150;2023-08-20T09:55:42;2.47;;;0.70;;
36725;SDS011;44936;52.086;5.150;2023-08-20T09:58:10;0.52;;;0.38;;
36725;SDS011;44936;52.086;5.150;2023-08-20T10:00:36;2.40;;;0.60;;
36725;SDS011;44936;52.086;5.150;2023-08-20T10:03:03;1.15;;;0.55;;
36725;SDS011;44936;52.086;5.150;2023-08-20T10:05:28;1.42;;;0.40;;
36725;SDS011;44936;52.086;5.150;2023-08-20T10:07:55;1.73;;;0.50;;
36725;SDS011;44936;52.086;5.150;2023-08-20T10:10:21;4.03;;;0.65;;
36725;SDS011;44936;52.086;5.150;2023-08-20T10:12:46;1.70;;;0.30;;
36725;SDS011;44936;52.086;5.150;2023-08-20T10:15:13;2.35;;;0.68;;
36725;SDS011;44936;52.086;5.150;2023-08-20T10:17:40;3.53;;;0.45;;
36725;SDS011;44936;52.086;5.150;2023-08-20T10:20:07;2.08;;;0.20;;
36725;SDS011;44936;52.086;5.150;2023-08-20T10:25:05;3.15;;;0.47;;
36725;SDS011;44936;52.086;5.150;2023-08-20T10:27:32;0.60;;;0.40;;
36725;SDS011;44936;52.086;5.150;2023-08-20T10:29:59;1.45;;;0.45;;
36725;SDS011;44936;52.086;5.150;2023-08-20T10:35:18;2.17;;;0.32;;
36725;SDS011;44936;52.086;5.150;2023-08-20T10:38:04;0.32;;;0.30;;
36725;SDS011;44936;52.086;5.150;2023-08-20T10:48:42;2.05;;;0.38;;
36725;SDS011;44936;52.086;5.150;2023-08-20T10:51:12;1.88;;;0.30;;
36725;SDS011;44936;52.086;5.150;2023-08-20T10:53:39;2.22;;;0.40;;
36725;SDS011;44936;52.086;5.150;2023-08-20T10:56:15;3.05;;;0.52;;
36725;SDS011;44936;52.086;5.150;2023-08-20T10:58:43;3.00;;;0.65;;
36725;SDS011;44936;52.086;5.150;2023-08-20T11:03:40;0.57;;;0.35;;
36725;SDS011;44936;52.086;5.150;2023-08-20T11:06:06;0.82;;;0.30;;
36725;SDS011;44936;52.086;5.150;2023-08-20T11:08:32;1.45;;;0.20;;
36725;SDS011;44936;52.086;5.150;2023-08-20T11:10:58;1.27;;;0.52;;
36725;SDS011;44936;52.086;5.150;2023-08-20T11:13:25;0.70;;;0.40;;
36725;SDS011;44936;52.086;5.150;2023-08-20T11:15:50;0.30;;;0.22;;
36725;SDS011;44936;52.086;5.150;2023-08-20T11:18:16;2.55;;;0.30;;
36725;SDS011;44936;52.086;5.150;2023-08-20T11:20:41;3.20;;;0.55;;
36725;SDS011;44936;52.086;5.150;2023-08-20T11:23:07;2.58;;;0.40;;
36725;SDS011;44936;52.086;5.150;2023-08-20T11:25:34;3.50;;;0.43;;
36725;SDS011;44936;52.086;5.150;2023-08-20T11:27:59;0.70;;;0.20;;
36725;SDS011;44936;52.086;5.150;2023-08-20T11:30:28;0.43;;;0.20;;
36725;SDS011;44936;52.086;5.150;2023-08-20T11:32:54;2.72;;;0.98;;
36725;SDS011;44936;52.086;5.150;2023-08-20T11:35:20;0.52;;;0.30;;
36725;SDS011;44936;52.086;5.150;2023-08-20T11:37:46;0.63;;;0.40;;
36725;SDS011;44936;52.086;5.150;2023-08-20T11:40:12;2.50;;;0.47;;
36725;SDS011;44936;52.086;5.150;2023-08-20T11:42:37;2.83;;;0.32;;
36725;SDS011;44936;52.086;5.150;2023-08-20T11:45:03;0.55;;;0.22;;
36725;SDS011;44936;52.086;5.150;2023-08-20T11:47:28;0.57;;;0.22;;
36725;SDS011;44936;52.086;5.150;2023-08-20T11:50:06;1.45;;;0.50;;
36725;SDS011;44936;52.086;5.150;2023-08-20T11:52:33;0.30;;;0.30;;
36725;SDS011;44936;52.086;5.150;2023-08-20T11:54:59;1.65;;;0.20;;
36725;SDS011;44936;52.086;5.150;2023-08-20T11:57:25;2.33;;;0.30;;
36725;SDS011;44936;52.086;5.150;2023-08-20T11:59:50;0.77;;;0.10;;
36725;SDS011;44936;52.086;5.150;2023-08-20T12:02:24;0.88;;;0.28;;
36725;SDS011;44936;52.086;5.150;2023-08-20T12:04:50;3.05;;;0.30;;
36725;SDS011;44936;52.086;5.150;2023-08-20T12:07:16;2.40;;;0.38;;
36725;SDS011;44936;52.086;5.150;2023-08-20T12:09:41;1.75;;;0.20;;
36725;SDS011;44936;52.086;5.150;2023-08-20T12:12:08;0.77;;;0.40;;
36725;SDS011;44936;52.086;5.150;2023-08-20T12:14:34;1.23;;;0.30;;
36725;SDS011;44936;52.086;5.150;2023-08-20T12:17:00;2.47;;;0.43;;
36725;SDS011;44936;52.086;5.150;2023-08-20T12:19:26;1.70;;;0.20;;
36725;SDS011;44936;52.086;5.150;2023-08-20T12:21:51;0.30;;;0.17;;
36725;SDS011;44936;52.086;5.150;2023-08-20T12:24:17;0.85;;;0.30;;
36725;SDS011;44936;52.086;5.150;2023-08-20T12:26:44;0.82;;;0.30;;
36725;SDS011;44936;52.086;5.150;2023-08-20T13:24:22;3.17;;;0.40;;
36725;SDS011;44936;52.086;5.150;2023-08-20T13:26:48;3.47;;;0.40;;
36725;SDS011;44936;52.086;5.150;2023-08-20T13:46:24;2.58;;;1.40;;
36725;SDS011;44936;52.086;5.150;2023-08-20T13:52:26;0.43;;;0.35;;
36725;SDS011;44936;52.086;5.150;2023-08-20T14:25:51;4.40;;;0.50;;
36725;SDS011;44936;52.086;5.150;2023-08-20T14:28:19;3.33;;;0.47;;
36725;SDS011;44936;52.086;5.150;2023-08-20T14:44:27;1.50;;;0.40;;
36725;SDS011;44936;52.086;5.150;2023-08-20T14:46:52;1.98;;;0.60;;
36725;SDS011;44936;52.086;5.150;2023-08-20T14:49:19;0.40;;;0.30;;
36725;SDS011;44936;52.086;5.150;2023-08-20T14:51:45;2.85;;;0.52;;
36725;SDS011;44936;52.086;5.150;2023-08-20T14:54:11;1.27;;;0.30;;
36725;SDS011;44936;52.086;5.150;2023-08-20T14:56:37;2.10;;;0.50;;
36725;SDS011;44936;52.086;5.150;2023-08-20T14:59:02;1.50;;;0.35;;
36725;SDS011;44936;52.086;5.150;2023-08-20T15:01:29;3.13;;;0.50;;
36725;SDS011;44936;52.086;5.150;2023-08-20T15:03:54;3.38;;;0.57;;
36725;SDS011;44936;52.086;5.150;2023-08-20T15:06:20;1.77;;;0.70;;
36725;SDS011;44936;52.086;5.150;2023-08-20T15:08:48;2.17;;;0.40;;
36725;SDS011;44936;52.086;5.150;2023-08-20T15:11:13;0.98;;;0.50;;
36725;SDS011;44936;52.086;5.150;2023-08-20T15:13:39;2.35;;;0.75;;
36725;SDS011;44936;52.086;5.150;2023-08-20T15:16:04;0.40;;;0.40;;
36725;SDS011;44936;52.086;5.150;2023-08-20T15:18:30;1.73;;;0.43;;
36725;SDS011;44936;52.086;5.150;2023-08-20T15:20:56;2.08;;;0.38;;
36725;SDS011;44936;52.086;5.150;2023-08-20T15:23:23;1.65;;;0.40;;
36725;SDS011;44936;52.086;5.150;2023-08-20T15:25:51;4.32;;;0.60;;
36725;SDS011;44936;52.086;5.150;2023-08-20T15:28:18;3.85;;;0.55;;
36725;SDS011;44936;52.086;5.150;2023-08-20T15:30:44;1.13;;;0.13;;
36725;SDS011;44936;52.086;5.150;2023-08-20T15:33:09;0.50;;;0.50;;
36725;SDS011;44936;52.086;5.150;2023-08-20T15:35:34;0.45;;;0.28;;
36725;SDS011;44936;52.086;5.150;2023-08-20T15:38:00;1.40;;;0.35;;
36725;SDS011;44936;52.086;5.150;2023-08-20T15:40:25;4.38;;;0.55;;
36725;SDS011;44936;52.086;5.150;2023-08-20T15:42:51;2.80;;;0.30;;
36725;SDS011;44936;52.086;5.150;2023-08-20T15:45:16;3.78;;;0.82;;
36725;SDS011;44936;52.086;5.150;2023-08-20T15:47:41;1.27;;;0.65;;
36725;SDS011;44936;52.086;5.150;2023-08-20T15:50:07;1.35;;;0.60;;
36725;SDS011;44936;52.086;5.150;2023-08-20T15:52:33;2.00;;;0.38;;
36725;SDS011;44936;52.086;5.150;2023-08-20T15:54:58;3.10;;;0.65;;
36725;SDS011;44936;52.086;5.150;2023-08-20T15:57:24;2.53;;;0.63;;
36725;SDS011;44936;52.086;5.150;2023-08-20T15:59:49;2.33;;;0.60;;
36725;SDS011;44936;52.086;5.150;2023-08-20T16:02:14;2.47;;;0.63;;
36725;SDS011;44936;52.086;5.150;2023-08-20T16:04:40;5.82;;;0.75;;
36725;SDS011;44936;52.086;5.150;2023-08-20T16:07:05;0.32;;;0.30;;
36725;SDS011;44936;52.086;5.150;2023-08-20T16:09:32;1.42;;;0.45;;
36725;SDS011;44936;52.086;5.150;2023-08-20T16:11:58;0.82;;;0.40;;
36725;SDS011;44936;52.086;5.150;2023-08-20T16:14:23;1.90;;;0.43;;
36725;SDS011;44936;52.086;5.150;2023-08-20T16:16:49;1.00;;;0.70;;
36725;SDS011;44936;52.086;5.150;2023-08-20T16:19:15;2.40;;;0.40;;
36725;SDS011;44936;52.086;5.150;2023-08-20T16:21:40;0.80;;;0.30;;
36725;SDS011;44936;52.086;5.150;2023-08-20T16:24:06;3.08;;;0.40;;
36725;SDS011;44936;52.086;5.150;2023-08-20T16:26:31;4.05;;;0.30;;
36725;SDS011;44936;52.086;5.150;2023-08-20T16:28:56;0.50;;;0.20;;
36725;SDS011;44936;52.086;5.150;2023-08-20T16:31:22;2.63;;;0.68;;
36725;SDS011;44936;52.086;5.150;2023-08-20T16:33:48;4.05;;;0.60;;
36725;SDS011;44936;52.086;5.150;2023-08-20T16:36:13;2.58;;;0.50;;
36725;SDS011;44936;52.086;5.150;2023-08-20T16:38:39;3.03;;;0.65;;
36725;SDS011;44936;52.086;5.150;2023-08-20T16:41:04;2.65;;;0.70;;
36725;SDS011;44936;52.086;5.150;2023-08-20T16:43:33;1.83;;;0.30;;
36725;SDS011;44936;52.086;5.150;2023-08-20T16:45:58;2.03;;;0.70;;
36725;SDS011;44936;52.086;5.150;2023-08-20T16:48:27;0.50;;;0.20;;
36725;SDS011;44936;52.086;5.150;2023-08-20T16:50:56;0.32;;;0.25;;
36725;SDS011;44936;52.086;5.150;2023-08-20T16:53:22;0.75;;;0.20;;
36725;SDS011;44936;52.086;5.150;2023-08-20T16:55:51;0.65;;;0.40;;
36725;SDS011;44936;52.086;5.150;2023-08-20T16:58:18;2.47;;;0.45;;
36725;SDS011;44936;52.086;5.150;2023-08-20T17:00:44;2.22;;;1.08;;
36725;SDS011;44936;52.086;5.150;2023-08-20T17:03:10;1.85;;;0.68;;
36725;SDS011;44936;52.086;5.150;2023-08-20T17:05:35;2.50;;;0.43;;
36725;SDS011;44936;52.086;5.150;2023-08-20T17:08:00;2.03;;;0.28;;
36725;SDS011;44936;52.086;5.150;2023-08-20T17:10:26;1.40;;;0.70;;